Marine-shuttle — JG4603 — position and weather

sailwx.info

Track history (hours):
 
Tides and Currents Weather Stations Pressure Air Temp Water Temp Dewpoint Dewpoint Depression Visibility Wind Speed Wind Dir Waves Ship Positions

Marine-shuttle

Last reported at 2018-Jun-18 08:58 UTC. Time now 2018-Jun-18 21:02 UTC.
Position N 35°27' E 139°39'.

Length 49 m; draft 2.8 m.

Type: Passenger vessel. MMSI: 431000517.

Date/timePositionNaut miles runAvg speedWind from/ knotsBaromVisibWave heightAir tempDewpointWater temp
2018-Jun-18 08:58N 35°27' E 139°39'1 1.9
2018-Jun-18 08:30N 35°27' E 139°40'1 1.8
2018-Jun-18 08:00N 35°27' E 139°39'0 0.9
2018-Jun-18 07:30N 35°27' E 139°39'1 2.6
2018-Jun-18 07:00N 35°27' E 139°41'1 3.0
2018-Jun-18 06:30N 35°27' E 139°39'0 0.0
2018-Jun-18 06:00N 35°27' E 139°39'0 0.8
2018-Jun-18 05:30N 35°27' E 139°39'2 3.1
2018-Jun-18 04:59N 35°27' E 139°41'2 3.4
2018-Jun-18 04:30N 35°27' E 139°39'0 0.0
2018-Jun-18 04:00N 35°27' E 139°39'0 0.8
2018-Jun-18 03:30N 35°27' E 139°39'1 2.7
2018-Jun-18 03:00N 35°27' E 139°41'2 2.8
2018-Jun-18 02:26N 35°27' E 139°39'0 0.0
2018-Jun-18 02:00N 35°27' E 139°39'0 0.0
2018-Jun-18 01:30N 35°27' E 139°39'0 0.0
2018-Jun-18 01:00N 35°27' E 139°39'0 0.0
2018-Jun-17 10:57N 35°27' E 139°39'3 6.5
2018-Jun-17 10:31N 35°28' E 139°42'3 5.9
2018-Jun-17 10:00N 35°27' E 139°39'0 1.0
2018-Jun-17 09:31N 35°27' E 139°39'0 0.0
2018-Jun-17 09:00N 35°27' E 139°39'0 0.0
2018-Jun-17 08:31N 35°27' E 139°39'1 1.7
2018-Jun-17 08:01N 35°27' E 139°40'1 1.5
2018-Jun-17 07:30N 35°27' E 139°39'2 3.5
2018-Jun-17 07:01N 35°27' E 139°41'2 3.6
2018-Jun-17 06:31N 35°27' E 139°39'1 2.2
2018-Jun-17 06:01N 35°28' E 139°40'0 1.0
2018-Jun-17 05:31N 35°27' E 139°40'1 1.9
2018-Jun-17 04:59N 35°27' E 139°39'0 0.0
2018-Jun-17 04:31N 35°27' E 139°39'1 2.1
2018-Jun-17 04:01N 35°28' E 139°39'3 6.5
2018-Jun-17 03:31N 35°27' E 139°43'3 6.3
2018-Jun-17 03:01N 35°27' E 139°39'0 0.0
2018-Jun-17 02:31N 35°27' E 139°39'0 0.0
2018-Jun-17 02:01N 35°27' E 139°39'1 1.6
2018-Jun-17 01:30N 35°27' E 139°40'1 1.6
2018-Jun-17 01:01N 35°27' E 139°39'0 0.0
2018-Jun-17 00:31N 35°27' E 139°39'0 0.0
2018-Jun-17 00:01N 35°27' E 139°39'0 0.0
2018-Jun-16 10:57N 35°27' E 139°39'3 6.3
2018-Jun-16 10:30N 35°28' E 139°42'3 5.7
2018-Jun-16 10:01N 35°27' E 139°39'0 0.9
2018-Jun-16 09:30N 35°27' E 139°39'0 0.0
2018-Jun-16 09:00N 35°27' E 139°39'0 0.0
2018-Jun-16 08:30N 35°27' E 139°39'1 2.0
2018-Jun-16 08:00N 35°27' E 139°40'1 1.5
2018-Jun-16 07:31N 35°27' E 139°39'2 3.0
2018-Jun-16 07:01N 35°27' E 139°41'2 3.3
2018-Jun-16 06:30N 35°27' E 139°39'0 0.9
2018-Jun-16 06:00N 35°27' E 139°39'1 2.8
2018-Jun-16 05:31N 35°27' E 139°41'2 2.9
2018-Jun-16 04:59N 35°27' E 139°39'1 1.9
2018-Jun-16 04:30N 35°27' E 139°40'1 1.8
2018-Jun-16 04:00N 35°27' E 139°39'0 0.5
2018-Jun-16 03:30N 35°27' E 139°39'2 3.4
2018-Jun-16 03:00N 35°27' E 139°41'2 3.6
2018-Jun-16 02:30N 35°27' E 139°39'1 2.5
2018-Jun-16 02:00N 35°28' E 139°40'0 0.9
2018-Jun-16 01:30N 35°27' E 139°40'1 0.1
2018-Jun-15 08:55N 35°27' E 139°39'1 2.2
2018-Jun-15 08:30N 35°27' E 139°40'1 1.8
2018-Jun-15 08:01N 35°27' E 139°39'0 0.0
2018-Jun-15 07:30N 35°27' E 139°39'1 2.0
2018-Jun-15 07:00N 35°28' E 139°40'1 2.1
2018-Jun-15 06:31N 35°27' E 139°39'0 0.0
2018-Jun-15 06:00N 35°27' E 139°39'0 0.0
2018-Jun-15 05:31N 35°27' E 139°39'2 4.6
2018-Jun-15 05:00N 35°27' E 139°42'2 4.6
2018-Jun-15 04:31N 35°27' E 139°39'0 0.0
2018-Jun-15 04:00N 35°27' E 139°39'0 0.0
2018-Jun-15 03:30N 35°27' E 139°39'2 4.5
2018-Jun-15 03:01N 35°27' E 139°42'2 4.5
2018-Jun-15 02:30N 35°27' E 139°39'1 2.2
2018-Jun-15 02:00N 35°28' E 139°40'0 0.9
2018-Jun-15 01:31N 35°27' E 139°40'1 2.0
2018-Jun-15 01:00N 35°27' E 139°39'0 0.0
2018-Jun-15 00:30N 35°27' E 139°39'0 0.0
2018-Jun-14 08:50N 35°27' E 139°39'1 2.0
2018-Jun-14 08:30N 35°27' E 139°40'1 1.8
2018-Jun-14 08:00N 35°27' E 139°39'0 0.3
2018-Jun-14 07:30N 35°27' E 139°39'2 3.4
2018-Jun-14 07:01N 35°27' E 139°41'2 3.5
2018-Jun-14 06:30N 35°27' E 139°39'0 0.0
2018-Jun-14 06:01N 35°27' E 139°39'1 1.2
2018-Jun-14 05:30N 35°27' E 139°39'1 2.7
2018-Jun-14 05:01N 35°27' E 139°41'2 3.0
2018-Jun-14 04:30N 35°27' E 139°39'0 0.0
2018-Jun-14 03:59N 35°27' E 139°39'0 0.0
2018-Jun-14 03:30N 35°27' E 139°39'2 4.4
2018-Jun-14 03:01N 35°27' E 139°42'2 4.4
2018-Jun-14 02:31N 35°27' E 139°39'1 2.6
2018-Jun-14 02:00N 35°28' E 139°40'0 0.9
2018-Jun-14 01:30N 35°27' E 139°40'1 2.0
2018-Jun-14 01:00N 35°27' E 139°39'0 0.0
2018-Jun-14 00:30N 35°27' E 139°39'0 0.0
2018-Jun-14 00:01N 35°27' E 139°39'0 0.0
2018-Jun-13 10:57N 35°27' E 139°39'1 2.2
2018-Jun-13 10:30N 35°27' E 139°38'1 2.7
2018-Jun-13 10:00N 35°28' E 139°40'0 0.8
2018-Jun-13 09:30N 35°27' E 139°40'1 2.7
2018-Jun-13 09:00N 35°27' E 139°38'1 1.9
2018-Jun-13 08:30N 35°27' E 139°39'0 0.2
2018-Jun-13 08:00N 35°27' E 139°39'0 0.8
2018-Jun-13 07:30N 35°27' E 139°39'1 3.0
2018-Jun-13 07:00N 35°27' E 139°41'2 3.3
2018-Jun-13 06:30N 35°27' E 139°39'0 0.0
2018-Jun-13 06:00N 35°27' E 139°39'0 0.0
2018-Jun-13 05:30N 35°27' E 139°39'2 4.6
2018-Jun-13 05:00N 35°27' E 139°42'2 4.6
2018-Jun-13 04:30N 35°27' E 139°39'0 0.0
2018-Jun-13 04:00N 35°27' E 139°39'0 0.1
2018-Jun-13 03:30N 35°27' E 139°39'2 3.9
2018-Jun-13 03:00N 35°27' E 139°42'2 4.1
2018-Jun-13 02:30N 35°27' E 139°39'3 5.6
2018-Jun-13 02:00N 35°28' E 139°42'3 5.2
2018-Jun-13 01:30N 35°27' E 139°39'0 0.0
2018-Jun-12 08:51N 35°27' E 139°39'0 1.1
2018-Jun-12 08:30N 35°27' E 139°39'1 1.5
2018-Jun-12 08:00N 35°27' E 139°39'0 0.0
2018-Jun-12 07:30N 35°27' E 139°39'2 4.7
2018-Jun-12 07:00N 35°27' E 139°42'2 4.7
2018-Jun-12 06:30N 35°27' E 139°39'0 0.0
2018-Jun-12 05:59N 35°27' E 139°39'1 1.4
2018-Jun-12 05:30N 35°27' E 139°39'1 2.9
2018-Jun-12 05:00N 35°27' E 139°41'2 3.2
2018-Jun-12 04:30N 35°27' E 139°39'0 0.0
2018-Jun-12 04:00N 35°27' E 139°39'0 0.0
2018-Jun-12 03:30N 35°27' E 139°39'2 4.6
2018-Jun-12 03:00N 35°27' E 139°42'2 4.5
2018-Jun-12 02:30N 35°27' E 139°39'0 0.0
2018-Jun-12 02:00N 35°27' E 139°39'0 0.0
2018-Jun-12 01:30N 35°27' E 139°39'0 0.0
2018-Jun-12 00:58N 35°27' E 139°39'0 0.0
2018-Jun-11 10:57N 35°27' E 139°39'1 2.3
2018-Jun-11 10:30N 35°28' E 139°40'0 0.4
2018-Jun-11 10:01N 35°27' E 139°40'1 1.6
2018-Jun-11 09:30N 35°27' E 139°39'0 0.1
2018-Jun-11 09:00N 35°27' E 139°39'0 0.0
2018-Jun-11 08:30N 35°27' E 139°39'0 0.0
2018-Jun-11 08:00N 35°27' E 139°39'0 0.0
2018-Jun-11 07:29N 35°27' E 139°39'0 0.0
2018-Jun-11 06:59N 35°27' E 139°39'0 0.0
2018-Jun-11 06:30N 35°27' E 139°39'0 0.0
2018-Jun-11 05:58N 35°27' E 139°39'0 0.0
2018-Jun-11 05:30N 35°27' E 139°39'3 5.7
2018-Jun-11 05:00N 35°28' E 139°42'3 5.7
2018-Jun-11 04:30N 35°27' E 139°39'0 0.0
2018-Jun-11 04:00N 35°27' E 139°39'0 0.0
2018-Jun-11 03:30N 35°27' E 139°39'0 0.0
2018-Jun-11 03:00N 35°27' E 139°39'0 0.0
2018-Jun-11 02:28N 35°27' E 139°39'0 0.0
2018-Jun-11 02:00N 35°27' E 139°39'0 0.0
2018-Jun-10 10:57N 35°27' E 139°39'3 6.3
2018-Jun-10 10:30N 35°28' E 139°42'3 5.7
2018-Jun-10 10:00N 35°27' E 139°39'0 1.0
2018-Jun-10 09:30N 35°27' E 139°39'0 0.0
2018-Jun-10 09:00N 35°27' E 139°39'0 0.0
2018-Jun-10 08:30N 35°27' E 139°39'1 1.8
2018-Jun-10 08:00N 35°28' E 139°39'1 1.8
2018-Jun-10 07:30N 35°27' E 139°39'3 5.7
2018-Jun-10 07:00N 35°28' E 139°42'3 5.7
2018-Jun-10 06:30N 35°27' E 139°39'1 2.3
2018-Jun-10 06:00N 35°28' E 139°40'0 0.9
2018-Jun-10 05:30N 35°27' E 139°40'1 2.0
2018-Jun-10 05:00N 35°27' E 139°39'1 1.7
2018-Jun-10 04:30N 35°27' E 139°40'1 1.8
2018-Jun-10 04:00N 35°27' E 139°39'0 0.5
2018-Jun-10 03:30N 35°27' E 139°39'2 3.3
2018-Jun-10 03:00N 35°27' E 139°41'2 3.5
2018-Jun-10 02:30N 35°27' E 139°39'1 2.4
2018-Jun-10 02:00N 35°28' E 139°40'0 0.9
2018-Jun-10 01:30N 35°27' E 139°40'1 2.0
2018-Jun-10 01:00N 35°27' E 139°39'0 0.0
2018-Jun-09 09:57N 35°27' E 139°39'3 6.9
2018-Jun-09 09:30N 35°28' E 139°43'1 1.9
2018-Jun-09 09:00N 35°27' E 139°42'3 5.4
2018-Jun-09 08:31N 35°27' E 139°39'0 0.1
2018-Jun-09 08:01N 35°27' E 139°39'0 0.0
2018-Jun-09 07:30N 35°27' E 139°39'3 5.5
2018-Jun-09 07:01N 35°28' E 139°42'3 5.4
2018-Jun-09 06:30N 35°27' E 139°39'1 2.4
2018-Jun-09 06:00N 35°28' E 139°40'0 0.8
2018-Jun-09 05:30N 35°27' E 139°40'1 2.0
2018-Jun-09 05:00N 35°27' E 139°39'1 1.7
2018-Jun-09 04:31N 35°27' E 139°40'1 1.7
2018-Jun-09 04:00N 35°27' E 139°39'0 0.5
2018-Jun-09 03:30N 35°27' E 139°39'2 3.0
2018-Jun-09 03:00N 35°27' E 139°41'2 3.3
2018-Jun-09 02:30N 35°27' E 139°39'2 3.8
2018-Jun-09 02:00N 35°28' E 139°41'1 2.3
2018-Jun-09 01:31N 35°27' E 139°40'1 1.6
2018-Jun-09 01:00N 35°27' E 139°39'0 0.0
2018-Jun-09 00:30N 35°27' E 139°39'0 0.0
2018-Jun-08 11:30N 35°27' E 139°39'0 0.4
2018-Jun-08 11:00N 35°27' E 139°39'1 2.3
2018-Jun-08 10:31N 35°28' E 139°40'1 2.2
2018-Jun-08 10:00N 35°27' E 139°39'1 1.1
2018-Jun-08 09:30N 35°27' E 139°39'0 0.0
2018-Jun-08 09:00N 35°27' E 139°39'  
Track history (hours):
 
Tides and Currents Weather Stations Pressure Air Temp Water Temp Dewpoint Dewpoint Depression Visibility Wind Speed Wind Dir Waves Ship Positions

Marine-shuttle

Last reported at 2018-Jun-18 08:58 UTC. Time now 2018-Jun-18 21:02 UTC.
Position N 35°27' E 139°39'.

Length 49 m; draft 2.8 m.

Type: Passenger vessel. MMSI: 431000517.

Date/timePositionNaut miles runAvg speedWind from/ knotsBaromVisibWave heightAir tempDewpointWater temp
2018-Jun-18 08:58N 35°27' E 139°39'1 1.9
2018-Jun-18 08:30N 35°27' E 139°40'1 1.8
2018-Jun-18 08:00N 35°27' E 139°39'0 0.9
2018-Jun-18 07:30N 35°27' E 139°39'1 2.6
2018-Jun-18 07:00N 35°27' E 139°41'1 3.0
2018-Jun-18 06:30N 35°27' E 139°39'0 0.0
2018-Jun-18 06:00N 35°27' E 139°39'0 0.8
2018-Jun-18 05:30N 35°27' E 139°39'2 3.1
2018-Jun-18 04:59N 35°27' E 139°41'2 3.4
2018-Jun-18 04:30N 35°27' E 139°39'0 0.0
2018-Jun-18 04:00N 35°27' E 139°39'0 0.8
2018-Jun-18 03:30N 35°27' E 139°39'1 2.7
2018-Jun-18 03:00N 35°27' E 139°41'2 2.8
2018-Jun-18 02:26N 35°27' E 139°39'0 0.0
2018-Jun-18 02:00N 35°27' E 139°39'0 0.0
2018-Jun-18 01:30N 35°27' E 139°39'0 0.0
2018-Jun-18 01:00N 35°27' E 139°39'0 0.0
2018-Jun-17 10:57N 35°27' E 139°39'3 6.5
2018-Jun-17 10:31N 35°28' E 139°42'3 5.9
2018-Jun-17 10:00N 35°27' E 139°39'0 1.0
2018-Jun-17 09:31N 35°27' E 139°39'0 0.0
2018-Jun-17 09:00N 35°27' E 139°39'0 0.0
2018-Jun-17 08:31N 35°27' E 139°39'1 1.7
2018-Jun-17 08:01N 35°27' E 139°40'1 1.5
2018-Jun-17 07:30N 35°27' E 139°39'2 3.5
2018-Jun-17 07:01N 35°27' E 139°41'2 3.6
2018-Jun-17 06:31N 35°27' E 139°39'1 2.2
2018-Jun-17 06:01N 35°28' E 139°40'0 1.0
2018-Jun-17 05:31N 35°27' E 139°40'1 1.9
2018-Jun-17 04:59N 35°27' E 139°39'0 0.0
2018-Jun-17 04:31N 35°27' E 139°39'1 2.1
2018-Jun-17 04:01N 35°28' E 139°39'3 6.5
2018-Jun-17 03:31N 35°27' E 139°43'3 6.3
2018-Jun-17 03:01N 35°27' E 139°39'0 0.0
2018-Jun-17 02:31N 35°27' E 139°39'0 0.0
2018-Jun-17 02:01N 35°27' E 139°39'1 1.6
2018-Jun-17 01:30N 35°27' E 139°40'1 1.6
2018-Jun-17 01:01N 35°27' E 139°39'0 0.0
2018-Jun-17 00:31N 35°27' E 139°39'0 0.0
2018-Jun-17 00:01N 35°27' E 139°39'0 0.0
2018-Jun-16 10:57N 35°27' E 139°39'3 6.3
2018-Jun-16 10:30N 35°28' E 139°42'3 5.7
2018-Jun-16 10:01N 35°27' E 139°39'0 0.9
2018-Jun-16 09:30N 35°27' E 139°39'0 0.0
2018-Jun-16 09:00N 35°27' E 139°39'0 0.0
2018-Jun-16 08:30N 35°27' E 139°39'1 2.0
2018-Jun-16 08:00N 35°27' E 139°40'1 1.5
2018-Jun-16 07:31N 35°27' E 139°39'2 3.0
2018-Jun-16 07:01N 35°27' E 139°41'2 3.3
2018-Jun-16 06:30N 35°27' E 139°39'0 0.9
2018-Jun-16 06:00N 35°27' E 139°39'1 2.8
2018-Jun-16 05:31N 35°27' E 139°41'2 2.9
2018-Jun-16 04:59N 35°27' E 139°39'1 1.9
2018-Jun-16 04:30N 35°27' E 139°40'1 1.8
2018-Jun-16 04:00N 35°27' E 139°39'0 0.5
2018-Jun-16 03:30N 35°27' E 139°39'2 3.4
2018-Jun-16 03:00N 35°27' E 139°41'2 3.6
2018-Jun-16 02:30N 35°27' E 139°39'1 2.5
2018-Jun-16 02:00N 35°28' E 139°40'0 0.9
2018-Jun-16 01:30N 35°27' E 139°40'1 0.1
2018-Jun-15 08:55N 35°27' E 139°39'1 2.2
2018-Jun-15 08:30N 35°27' E 139°40'1 1.8
2018-Jun-15 08:01N 35°27' E 139°39'0 0.0
2018-Jun-15 07:30N 35°27' E 139°39'1 2.0
2018-Jun-15 07:00N 35°28' E 139°40'1 2.1
2018-Jun-15 06:31N 35°27' E 139°39'0 0.0
2018-Jun-15 06:00N 35°27' E 139°39'0 0.0
2018-Jun-15 05:31N 35°27' E 139°39'2 4.6
2018-Jun-15 05:00N 35°27' E 139°42'2 4.6
2018-Jun-15 04:31N 35°27' E 139°39'0 0.0
2018-Jun-15 04:00N 35°27' E 139°39'0 0.0
2018-Jun-15 03:30N 35°27' E 139°39'2 4.5
2018-Jun-15 03:01N 35°27' E 139°42'2 4.5
2018-Jun-15 02:30N 35°27' E 139°39'1 2.2
2018-Jun-15 02:00N 35°28' E 139°40'0 0.9
2018-Jun-15 01:31N 35°27' E 139°40'1 2.0
2018-Jun-15 01:00N 35°27' E 139°39'0 0.0
2018-Jun-15 00:30N 35°27' E 139°39'0 0.0
2018-Jun-14 08:50N 35°27' E 139°39'1 2.0
2018-Jun-14 08:30N 35°27' E 139°40'1 1.8
2018-Jun-14 08:00N 35°27' E 139°39'0 0.3
2018-Jun-14 07:30N 35°27' E 139°39'2 3.4
2018-Jun-14 07:01N 35°27' E 139°41'2 3.5
2018-Jun-14 06:30N 35°27' E 139°39'0 0.0
2018-Jun-14 06:01N 35°27' E 139°39'1 1.2
2018-Jun-14 05:30N 35°27' E 139°39'1 2.7
2018-Jun-14 05:01N 35°27' E 139°41'2 3.0
2018-Jun-14 04:30N 35°27' E 139°39'0 0.0
2018-Jun-14 03:59N 35°27' E 139°39'0 0.0
2018-Jun-14 03:30N 35°27' E 139°39'2 4.4
2018-Jun-14 03:01N 35°27' E 139°42'2 4.4
2018-Jun-14 02:31N 35°27' E 139°39'1 2.6
2018-Jun-14 02:00N 35°28' E 139°40'0 0.9
2018-Jun-14 01:30N 35°27' E 139°40'1 2.0
2018-Jun-14 01:00N 35°27' E 139°39'0 0.0
2018-Jun-14 00:30N 35°27' E 139°39'0 0.0
2018-Jun-14 00:01N 35°27' E 139°39'0 0.0
2018-Jun-13 10:57N 35°27' E 139°39'1 2.2
2018-Jun-13 10:30N 35°27' E 139°38'1 2.7
2018-Jun-13 10:00N 35°28' E 139°40'0 0.8
2018-Jun-13 09:30N 35°27' E 139°40'1 2.7
2018-Jun-13 09:00N 35°27' E 139°38'1 1.9
2018-Jun-13 08:30N 35°27' E 139°39'0 0.2
2018-Jun-13 08:00N 35°27' E 139°39'0 0.8
2018-Jun-13 07:30N 35°27' E 139°39'1 3.0
2018-Jun-13 07:00N 35°27' E 139°41'2 3.3
2018-Jun-13 06:30N 35°27' E 139°39'0 0.0
2018-Jun-13 06:00N 35°27' E 139°39'0 0.0
2018-Jun-13 05:30N 35°27' E 139°39'2 4.6
2018-Jun-13 05:00N 35°27' E 139°42'2 4.6
2018-Jun-13 04:30N 35°27' E 139°39'0 0.0
2018-Jun-13 04:00N 35°27' E 139°39'0 0.1
2018-Jun-13 03:30N 35°27' E 139°39'2 3.9
2018-Jun-13 03:00N 35°27' E 139°42'2 4.1
2018-Jun-13 02:30N 35°27' E 139°39'3 5.6
2018-Jun-13 02:00N 35°28' E 139°42'3 5.2
2018-Jun-13 01:30N 35°27' E 139°39'0 0.0
2018-Jun-12 08:51N 35°27' E 139°39'0 1.1
2018-Jun-12 08:30N 35°27' E 139°39'1 1.5
2018-Jun-12 08:00N 35°27' E 139°39'0 0.0
2018-Jun-12 07:30N 35°27' E 139°39'2 4.7
2018-Jun-12 07:00N 35°27' E 139°42'2 4.7
2018-Jun-12 06:30N 35°27' E 139°39'0 0.0
2018-Jun-12 05:59N 35°27' E 139°39'1 1.4
2018-Jun-12 05:30N 35°27' E 139°39'1 2.9
2018-Jun-12 05:00N 35°27' E 139°41'2 3.2
2018-Jun-12 04:30N 35°27' E 139°39'0 0.0
2018-Jun-12 04:00N 35°27' E 139°39'0 0.0
2018-Jun-12 03:30N 35°27' E 139°39'2 4.6
2018-Jun-12 03:00N 35°27' E 139°42'2 4.5
2018-Jun-12 02:30N 35°27' E 139°39'0 0.0
2018-Jun-12 02:00N 35°27' E 139°39'0 0.0
2018-Jun-12 01:30N 35°27' E 139°39'0 0.0
2018-Jun-12 00:58N 35°27' E 139°39'0 0.0
2018-Jun-11 10:57N 35°27' E 139°39'1 2.3
2018-Jun-11 10:30N 35°28' E 139°40'0 0.4
2018-Jun-11 10:01N 35°27' E 139°40'1 1.6
2018-Jun-11 09:30N 35°27' E 139°39'0 0.1
2018-Jun-11 09:00N 35°27' E 139°39'0 0.0
2018-Jun-11 08:30N 35°27' E 139°39'0 0.0
2018-Jun-11 08:00N 35°27' E 139°39'0 0.0
2018-Jun-11 07:29N 35°27' E 139°39'0 0.0
2018-Jun-11 06:59N 35°27' E 139°39'0 0.0
2018-Jun-11 06:30N 35°27' E 139°39'0 0.0
2018-Jun-11 05:58N 35°27' E 139°39'0 0.0
2018-Jun-11 05:30N 35°27' E 139°39'3 5.7
2018-Jun-11 05:00N 35°28' E 139°42'3 5.7
2018-Jun-11 04:30N 35°27' E 139°39'0 0.0
2018-Jun-11 04:00N 35°27' E 139°39'0 0.0
2018-Jun-11 03:30N 35°27' E 139°39'0 0.0
2018-Jun-11 03:00N 35°27' E 139°39'0 0.0
2018-Jun-11 02:28N 35°27' E 139°39'0 0.0
2018-Jun-11 02:00N 35°27' E 139°39'0 0.0
2018-Jun-10 10:57N 35°27' E 139°39'3 6.3
2018-Jun-10 10:30N 35°28' E 139°42'3 5.7
2018-Jun-10 10:00N 35°27' E 139°39'0 1.0
2018-Jun-10 09:30N 35°27' E 139°39'0 0.0
2018-Jun-10 09:00N 35°27' E 139°39'0 0.0
2018-Jun-10 08:30N 35°27' E 139°39'1 1.8
2018-Jun-10 08:00N 35°28' E 139°39'1 1.8
2018-Jun-10 07:30N 35°27' E 139°39'3 5.7
2018-Jun-10 07:00N 35°28' E 139°42'3 5.7
2018-Jun-10 06:30N 35°27' E 139°39'1 2.3
2018-Jun-10 06:00N 35°28' E 139°40'0 0.9
2018-Jun-10 05:30N 35°27' E 139°40'1 2.0
2018-Jun-10 05:00N 35°27' E 139°39'1 1.7
2018-Jun-10 04:30N 35°27' E 139°40'1 1.8
2018-Jun-10 04:00N 35°27' E 139°39'0 0.5
2018-Jun-10 03:30N 35°27' E 139°39'2 3.3
2018-Jun-10 03:00N 35°27' E 139°41'2 3.5
2018-Jun-10 02:30N 35°27' E 139°39'1 2.4
2018-Jun-10 02:00N 35°28' E 139°40'0 0.9
2018-Jun-10 01:30N 35°27' E 139°40'1 2.0
2018-Jun-10 01:00N 35°27' E 139°39'0 0.0
2018-Jun-09 09:57N 35°27' E 139°39'3 6.9
2018-Jun-09 09:30N 35°28' E 139°43'1 1.9
2018-Jun-09 09:00N 35°27' E 139°42'3 5.4
2018-Jun-09 08:31N 35°27' E 139°39'0 0.1
2018-Jun-09 08:01N 35°27' E 139°39'0 0.0
2018-Jun-09 07:30N 35°27' E 139°39'3 5.5
2018-Jun-09 07:01N 35°28' E 139°42'3 5.4
2018-Jun-09 06:30N 35°27' E 139°39'1 2.4
2018-Jun-09 06:00N 35°28' E 139°40'0 0.8
2018-Jun-09 05:30N 35°27' E 139°40'1 2.0
2018-Jun-09 05:00N 35°27' E 139°39'1 1.7
2018-Jun-09 04:31N 35°27' E 139°40'1 1.7
2018-Jun-09 04:00N 35°27' E 139°39'0 0.5
2018-Jun-09 03:30N 35°27' E 139°39'2 3.0
2018-Jun-09 03:00N 35°27' E 139°41'2 3.3
2018-Jun-09 02:30N 35°27' E 139°39'2 3.8
2018-Jun-09 02:00N 35°28' E 139°41'1 2.3
2018-Jun-09 01:31N 35°27' E 139°40'1 1.6
2018-Jun-09 01:00N 35°27' E 139°39'0 0.0
2018-Jun-09 00:30N 35°27' E 139°39'0 0.0
2018-Jun-08 11:30N 35°27' E 139°39'0 0.4
2018-Jun-08 11:00N 35°27' E 139°39'1 2.3
2018-Jun-08 10:31N 35°28' E 139°40'1 2.2
2018-Jun-08 10:00N 35°27' E 139°39'1 1.1
2018-Jun-08 09:30N 35°27' E 139°39'0 0.0
2018-Jun-08 09:00N 35°27' E 139°39'  

Dump ship's entire track history